sensor_id;sensor_type;location;lat;lon;timestamp;noise_LAeq;noise_LA_min;noise_LA_max;noise_LA01;noise_LA95
60872;Laerm;46714;50.118;14.462;2022-11-25T00:01:31;67.34;52.72;76.14;;
60872;Laerm;46714;50.118;14.462;2022-11-25T00:03:57;69.19;55.09;77.60;;
60872;Laerm;46714;50.118;14.462;2022-11-25T00:06:25;66.60;49.19;75.04;;
60872;Laerm;46714;50.118;14.462;2022-11-25T00:08:55;68.78;57.35;76.17;;
60872;Laerm;46714;50.118;14.462;2022-11-25T00:11:21;70.60;47.50;83.66;;
60872;Laerm;46714;50.118;14.462;2022-11-25T00:13:47;66.65;46.43;78.18;;
60872;Laerm;46714;50.118;14.462;2022-11-25T00:16:18;67.59;53.16;76.37;;
60872;Laerm;46714;50.118;14.462;2022-11-25T00:18:51;65.40;48.74;74.00;;
60872;Laerm;46714;50.118;14.462;2022-11-25T00:21:22;68.88;57.84;79.06;;
60872;Laerm;46714;50.118;14.462;2022-11-25T00:23:56;68.54;51.43;77.76;;
60872;Laerm;46714;50.118;14.462;2022-11-25T00:26:23;64.78;49.50;72.26;;
60872;Laerm;46714;50.118;14.462;2022-11-25T00:28:51;65.14;48.25;73.64;;
60872;Laerm;46714;50.118;14.462;2022-11-25T00:31:23;67.35;55.69;76.31;;
60872;Laerm;46714;50.118;14.462;2022-11-25T00:33:49;66.87;56.00;75.55;;
60872;Laerm;46714;50.118;14.462;2022-11-25T00:38:55;66.70;54.33;74.75;;
60872;Laerm;46714;50.118;14.462;2022-11-25T00:41:22;66.97;49.98;76.89;;
60872;Laerm;46714;50.118;14.462;2022-11-25T00:44:10;66.35;49.34;79.22;;
60872;Laerm;46714;50.118;14.462;2022-11-25T00:46:55;66.40;48.10;77.18;;
60872;Laerm;46714;50.118;14.462;2022-11-25T00:49:21;68.42;54.73;75.01;;
60872;Laerm;46714;50.118;14.462;2022-11-25T00:51:46;64.52;44.62;75.10;;
60872;Laerm;46714;50.118;14.462;2022-11-25T00:54:12;66.34;46.02;79.67;;
60872;Laerm;46714;50.118;14.462;2022-11-25T00:56:37;65.52;44.58;78.73;;
60872;Laerm;46714;50.118;14.462;2022-11-25T00:59:02;67.18;53.06;75.96;;
60872;Laerm;46714;50.118;14.462;2022-11-25T01:01:28;65.31;45.51;74.97;;
60872;Laerm;46714;50.118;14.462;2022-11-25T01:03:53;66.79;51.19;73.24;;
60872;Laerm;46714;50.118;14.462;2022-11-25T01:06:20;65.91;50.49;74.35;;
60872;Laerm;46714;50.118;14.462;2022-11-25T01:08:46;65.62;49.24;73.87;;
60872;Laerm;46714;50.118;14.462;2022-11-25T01:11:14;66.45;51.10;76.27;;
60872;Laerm;46714;50.118;14.462;2022-11-25T01:13:40;68.31;55.09;76.53;;
60872;Laerm;46714;50.118;14.462;2022-11-25T01:16:07;64.66;46.55;76.60;;
60872;Laerm;46714;50.118;14.462;2022-11-25T01:18:33;65.95;52.02;76.35;;
60872;Laerm;46714;50.118;14.462;2022-11-25T01:21:29;64.94;46.40;74.14;;
60872;Laerm;46714;50.118;14.462;2022-11-25T01:23:55;66.65;51.37;76.81;;
60872;Laerm;46714;50.118;14.462;2022-11-25T01:26:23;64.80;46.20;71.92;;
60872;Laerm;46714;50.118;14.462;2022-11-25T01:28:53;65.14;47.02;75.35;;
60872;Laerm;46714;50.118;14.462;2022-11-25T01:31:20;66.66;48.45;75.89;;
60872;Laerm;46714;50.118;14.462;2022-11-25T01:33:48;64.11;46.23;73.93;;
60872;Laerm;46714;50.118;14.462;2022-11-25T01:36:17;66.24;47.59;74.95;;
60872;Laerm;46714;50.118;14.462;2022-11-25T01:38:43;68.27;53.73;78.48;;
60872;Laerm;46714;50.118;14.462;2022-11-25T01:41:11;66.12;55.74;73.17;;
60872;Laerm;46714;50.118;14.462;2022-11-25T01:43:37;67.05;51.16;75.74;;
60872;Laerm;46714;50.118;14.462;2022-11-25T01:46:23;66.36;44.97;75.00;;
60872;Laerm;46714;50.118;14.462;2022-11-25T01:48:59;66.50;48.36;77.06;;
60872;Laerm;46714;50.118;14.462;2022-11-25T01:51:40;65.22;46.84;73.75;;
60872;Laerm;46714;50.118;14.462;2022-11-25T01:54:11;67.23;53.16;76.88;;
60872;Laerm;46714;50.118;14.462;2022-11-25T01:57:00;66.79;49.39;77.08;;
60872;Laerm;46714;50.118;14.462;2022-11-25T01:59:26;63.72;44.07;75.01;;
60872;Laerm;46714;50.118;14.462;2022-11-25T02:01:54;65.15;43.90;75.65;;
60872;Laerm;46714;50.118;14.462;2022-11-25T02:04:25;67.71;53.87;77.55;;
60872;Laerm;46714;50.118;14.462;2022-11-25T02:06:55;66.56;49.15;77.05;;
60872;Laerm;46714;50.118;14.462;2022-11-25T02:09:21;64.95;50.09;72.50;;
60872;Laerm;46714;50.118;14.462;2022-11-25T02:11:48;67.41;54.23;77.47;;
60872;Laerm;46714;50.118;14.462;2022-11-25T02:14:15;64.16;46.35;76.12;;
60872;Laerm;46714;50.118;14.462;2022-11-25T02:16:42;69.79;52.31;84.32;;
60872;Laerm;46714;50.118;14.462;2022-11-25T02:19:16;68.73;48.84;84.99;;
60872;Laerm;46714;50.118;14.462;2022-11-25T02:21:50;66.21;48.29;77.18;;
60872;Laerm;46714;50.118;14.462;2022-11-25T02:24:24;65.27;49.82;74.61;;
60872;Laerm;46714;50.118;14.462;2022-11-25T02:26:51;63.04;46.52;73.92;;
60872;Laerm;46714;50.118;14.462;2022-11-25T02:29:16;66.50;47.16;78.38;;
60872;Laerm;46714;50.118;14.462;2022-11-25T02:31:43;67.91;56.03;76.80;;
60872;Laerm;46714;50.118;14.462;2022-11-25T02:34:08;66.85;51.02;75.70;;
60872;Laerm;46714;50.118;14.462;2022-11-25T02:36:34;67.40;52.91;79.51;;
60872;Laerm;46714;50.118;14.462;2022-11-25T02:39:00;67.20;58.06;76.83;;
60872;Laerm;46714;50.118;14.462;2022-11-25T02:41:48;67.82;46.30;87.72;;
60872;Laerm;46714;50.118;14.462;2022-11-25T02:44:15;67.32;47.93;76.82;;
60872;Laerm;46714;50.118;14.462;2022-11-25T02:46:40;67.79;53.10;77.83;;
60872;Laerm;46714;50.118;14.462;2022-11-25T02:49:06;76.94;50.01;102.51;;
60872;Laerm;46714;50.118;14.462;2022-11-25T02:51:32;65.75;47.44;75.55;;
60872;Laerm;46714;50.118;14.462;2022-11-25T02:53:58;68.59;47.50;76.74;;
60872;Laerm;46714;50.118;14.462;2022-11-25T02:56:27;66.67;45.99;78.76;;
60872;Laerm;46714;50.118;14.462;2022-11-25T02:58:53;65.50;46.95;75.07;;
60872;Laerm;46714;50.118;14.462;2022-11-25T03:01:19;66.31;54.13;77.80;;
60872;Laerm;46714;50.118;14.462;2022-11-25T03:03:45;65.89;50.68;74.28;;
60872;Laerm;46714;50.118;14.462;2022-11-25T03:06:10;67.54;48.31;75.54;;
60872;Laerm;46714;50.118;14.462;2022-11-25T03:08:36;67.42;55.99;76.26;;
60872;Laerm;46714;50.118;14.462;2022-11-25T03:11:02;66.34;43.19;76.17;;
60872;Laerm;46714;50.118;14.462;2022-11-25T03:13:28;66.16;57.45;79.41;;
60872;Laerm;46714;50.118;14.462;2022-11-25T03:15:53;67.60;59.86;74.31;;
60872;Laerm;46714;50.118;14.462;2022-11-25T03:18:19;67.94;52.62;77.07;;
60872;Laerm;46714;50.118;14.462;2022-11-25T03:20:44;66.34;50.69;75.71;;
60872;Laerm;46714;50.118;14.462;2022-11-25T03:23:10;68.69;58.41;80.85;;
60872;Laerm;46714;50.118;14.462;2022-11-25T03:25:35;66.46;48.26;74.32;;
60872;Laerm;46714;50.118;14.462;2022-11-25T03:28:01;68.13;54.95;81.45;;
60872;Laerm;46714;50.118;14.462;2022-11-25T03:30:27;67.44;51.32;77.07;;
60872;Laerm;46714;50.118;14.462;2022-11-25T03:32:53;64.91;49.93;74.54;;
60872;Laerm;46714;50.118;14.462;2022-11-25T03:35:19;67.97;58.81;74.22;;
60872;Laerm;46714;50.118;14.462;2022-11-25T03:37:45;68.44;56.83;81.30;;
60872;Laerm;46714;50.118;14.462;2022-11-25T03:40:11;67.55;56.66;76.39;;
60872;Laerm;46714;50.118;14.462;2022-11-25T03:42:37;68.01;54.67;75.23;;
60872;Laerm;46714;50.118;14.462;2022-11-25T03:45:03;69.71;54.32;81.95;;
60872;Laerm;46714;50.118;14.462;2022-11-25T03:47:29;69.45;52.38;77.53;;
60872;Laerm;46714;50.118;14.462;2022-11-25T03:49:54;69.15;56.39;81.99;;
60872;Laerm;46714;50.118;14.462;2022-11-25T03:52:20;68.91;60.67;75.35;;
60872;Laerm;46714;50.118;14.462;2022-11-25T03:54:46;69.60;54.28;82.13;;
60872;Laerm;46714;50.118;14.462;2022-11-25T03:57:12;70.54;58.28;78.77;;
60872;Laerm;46714;50.118;14.462;2022-11-25T03:59:38;65.92;50.90;74.85;;
60872;Laerm;46714;50.118;14.462;2022-11-25T04:02:03;67.43;55.29;76.12;;
60872;Laerm;46714;50.118;14.462;2022-11-25T04:04:29;68.55;56.82;75.73;;
60872;Laerm;46714;50.118;14.462;2022-11-25T04:06:54;68.60;56.53;79.50;;
60872;Laerm;46714;50.118;14.462;2022-11-25T04:09:20;70.14;53.92;81.09;;
60872;Laerm;46714;50.118;14.462;2022-11-25T04:11:45;70.15;58.19;76.98;;
60872;Laerm;46714;50.118;14.462;2022-11-25T04:14:29;68.92;58.76;76.19;;
60872;Laerm;46714;50.118;14.462;2022-11-25T04:16:55;70.79;62.07;78.36;;
60872;Laerm;46714;50.118;14.462;2022-11-25T04:19:20;69.29;59.73;77.55;;
60872;Laerm;46714;50.118;14.462;2022-11-25T04:21:46;69.65;58.42;77.74;;
60872;Laerm;46714;50.118;14.462;2022-11-25T04:24:11;70.77;57.89;79.85;;
60872;Laerm;46714;50.118;14.462;2022-11-25T04:26:36;72.62;60.64;85.94;;
60872;Laerm;46714;50.118;14.462;2022-11-25T04:29:02;72.25;61.53;78.49;;
60872;Laerm;46714;50.118;14.462;2022-11-25T04:31:28;71.48;62.52;76.99;;
60872;Laerm;46714;50.118;14.462;2022-11-25T04:33:53;72.16;63.95;78.99;;
60872;Laerm;46714;50.118;14.462;2022-11-25T04:36:19;71.77;66.29;76.58;;
60872;Laerm;46714;50.118;14.462;2022-11-25T04:38:44;72.63;63.63;80.29;;
60872;Laerm;46714;50.118;14.462;2022-11-25T04:41:09;72.52;65.27;80.84;;
60872;Laerm;46714;50.118;14.462;2022-11-25T04:43:35;71.84;61.70;78.63;;
60872;Laerm;46714;50.118;14.462;2022-11-25T04:46:01;72.21;65.05;79.14;;
60872;Laerm;46714;50.118;14.462;2022-11-25T04:48:27;72.26;66.51;77.51;;
60872;Laerm;46714;50.118;14.462;2022-11-25T04:50:53;72.14;63.23;79.91;;
60872;Laerm;46714;50.118;14.462;2022-11-25T04:53:18;73.18;66.93;78.95;;
60872;Laerm;46714;50.118;14.462;2022-11-25T04:55:44;73.38;67.56;81.83;;
60872;Laerm;46714;50.118;14.462;2022-11-25T04:58:10;71.89;64.80;77.42;;
60872;Laerm;46714;50.118;14.462;2022-11-25T05:00:36;72.32;63.57;79.71;;
60872;Laerm;46714;50.118;14.462;2022-11-25T05:03:01;73.51;67.02;80.54;;
60872;Laerm;46714;50.118;14.462;2022-11-25T05:05:27;75.47;66.79;92.87;;
60872;Laerm;46714;50.118;14.462;2022-11-25T05:07:52;73.78;69.04;80.20;;
60872;Laerm;46714;50.118;14.462;2022-11-25T05:10:18;73.10;67.68;78.74;;
60872;Laerm;46714;50.118;14.462;2022-11-25T05:12:43;73.44;66.82;78.73;;
60872;Laerm;46714;50.118;14.462;2022-11-25T05:15:09;73.99;69.54;79.40;;
60872;Laerm;46714;50.118;14.462;2022-11-25T05:17:35;73.51;66.72;78.47;;
60872;Laerm;46714;50.118;14.462;2022-11-25T05:20:00;74.31;69.18;80.80;;
60872;Laerm;46714;50.118;14.462;2022-11-25T05:22:28;73.58;68.36;80.34;;
60872;Laerm;46714;50.118;14.462;2022-11-25T05:24:54;73.86;68.03;80.61;;
60872;Laerm;46714;50.118;14.462;2022-11-25T05:27:20;73.42;67.65;77.61;;
60872;Laerm;46714;50.118;14.462;2022-11-25T05:29:46;74.98;69.46;79.67;;
60872;Laerm;46714;50.118;14.462;2022-11-25T05:32:13;74.27;70.02;78.90;;
60872;Laerm;46714;50.118;14.462;2022-11-25T05:34:39;74.30;68.91;79.52;;
60872;Laerm;46714;50.118;14.462;2022-11-25T05:37:05;73.95;64.33;81.20;;
60872;Laerm;46714;50.118;14.462;2022-11-25T05:39:30;72.96;68.04;77.95;;
60872;Laerm;46714;50.118;14.462;2022-11-25T05:41:56;74.23;66.54;80.11;;
60872;Laerm;46714;50.118;14.462;2022-11-25T05:44:21;73.83;62.91;79.94;;
60872;Laerm;46714;50.118;14.462;2022-11-25T05:46:46;73.41;65.79;77.20;;
60872;Laerm;46714;50.118;14.462;2022-11-25T05:49:13;73.39;66.18;79.47;;
60872;Laerm;46714;50.118;14.462;2022-11-25T05:51:39;73.89;67.42;81.69;;
60872;Laerm;46714;50.118;14.462;2022-11-25T05:54:05;74.51;69.90;79.43;;
60872;Laerm;46714;50.118;14.462;2022-11-25T05:56:30;73.06;66.83;78.00;;
60872;Laerm;46714;50.118;14.462;2022-11-25T05:58:57;74.66;67.80;83.01;;
60872;Laerm;46714;50.118;14.462;2022-11-25T06:01:23;74.06;68.33;78.19;;
60872;Laerm;46714;50.118;14.462;2022-11-25T06:03:48;74.11;66.82;77.66;;
60872;Laerm;46714;50.118;14.462;2022-11-25T06:06:14;73.92;66.86;82.43;;
60872;Laerm;46714;50.118;14.462;2022-11-25T06:08:39;73.29;65.46;79.40;;
60872;Laerm;46714;50.118;14.462;2022-11-25T06:11:11;73.82;68.69;79.24;;
60872;Laerm;46714;50.118;14.462;2022-11-25T06:13:37;73.44;66.89;78.02;;
60872;Laerm;46714;50.118;14.462;2022-11-25T06:16:14;74.31;67.55;80.80;;
60872;Laerm;46714;50.118;14.462;2022-11-25T06:18:40;74.08;65.63;82.58;;
60872;Laerm;46714;50.118;14.462;2022-11-25T06:21:06;73.07;66.00;77.89;;
60872;Laerm;46714;50.118;14.462;2022-11-25T06:23:33;74.08;68.48;79.25;;
60872;Laerm;46714;50.118;14.462;2022-11-25T06:26:22;74.80;68.49;82.15;;
60872;Laerm;46714;50.118;14.462;2022-11-25T06:28:52;75.34;70.22;82.55;;
60872;Laerm;46714;50.118;14.462;2022-11-25T06:31:20;76.20;67.58;92.61;;
60872;Laerm;46714;50.118;14.462;2022-11-25T06:33:46;77.25;68.32;94.75;;
60872;Laerm;46714;50.118;14.462;2022-11-25T06:36:12;73.47;68.26;76.89;;
60872;Laerm;46714;50.118;14.462;2022-11-25T06:38:42;74.58;69.61;78.26;;
60872;Laerm;46714;50.118;14.462;2022-11-25T06:41:08;74.37;67.22;84.29;;
60872;Laerm;46714;50.118;14.462;2022-11-25T06:43:33;74.61;70.88;82.90;;
60872;Laerm;46714;50.118;14.462;2022-11-25T06:46:07;75.94;67.80;89.77;;
60872;Laerm;46714;50.118;14.462;2022-11-25T06:48:33;74.82;66.63;85.30;;
60872;Laerm;46714;50.118;14.462;2022-11-25T06:51:00;74.44;68.01;78.55;;
60872;Laerm;46714;50.118;14.462;2022-11-25T06:53:26;73.86;68.74;81.77;;
60872;Laerm;46714;50.118;14.462;2022-11-25T06:58:31;74.08;68.85;78.00;;
60872;Laerm;46714;50.118;14.462;2022-11-25T07:01:05;74.49;69.24;80.52;;
60872;Laerm;46714;50.118;14.462;2022-11-25T07:03:31;75.09;69.37;80.93;;
60872;Laerm;46714;50.118;14.462;2022-11-25T07:05:57;74.12;67.11;83.67;;
60872;Laerm;46714;50.118;14.462;2022-11-25T07:08:24;74.08;67.47;80.68;;
60872;Laerm;46714;50.118;14.462;2022-11-25T07:10:50;74.31;67.62;81.38;;
60872;Laerm;46714;50.118;14.462;2022-11-25T07:13:16;73.40;67.75;79.37;;
60872;Laerm;46714;50.118;14.462;2022-11-25T07:15:41;74.58;68.91;80.87;;
60872;Laerm;46714;50.118;14.462;2022-11-25T07:18:06;74.49;69.80;79.03;;
60872;Laerm;46714;50.118;14.462;2022-11-25T07:20:32;74.81;69.96;79.98;;
60872;Laerm;46714;50.118;14.462;2022-11-25T07:22:57;74.21;67.43;79.24;;
60872;Laerm;46714;50.118;14.462;2022-11-25T07:25:22;74.94;68.79;81.78;;
60872;Laerm;46714;50.118;14.462;2022-11-25T07:27:48;74.03;68.56;79.09;;
60872;Laerm;46714;50.118;14.462;2022-11-25T07:30:13;74.46;67.98;80.81;;
60872;Laerm;46714;50.118;14.462;2022-11-25T07:32:39;73.60;65.99;81.32;;
60872;Laerm;46714;50.118;14.462;2022-11-25T07:35:05;74.42;67.45;80.98;;
60872;Laerm;46714;50.118;14.462;2022-11-25T07:37:30;74.25;67.29;82.78;;
60872;Laerm;46714;50.118;14.462;2022-11-25T07:39:55;74.83;70.83;79.82;;
60872;Laerm;46714;50.118;14.462;2022-11-25T07:42:21;74.49;68.17;81.84;;
60872;Laerm;46714;50.118;14.462;2022-11-25T07:44:47;74.55;68.62;83.86;;
60872;Laerm;46714;50.118;14.462;2022-11-25T07:47:13;75.26;66.53;84.52;;
60872;Laerm;46714;50.118;14.462;2022-11-25T07:49:38;74.29;69.91;81.65;;
60872;Laerm;46714;50.118;14.462;2022-11-25T07:52:04;73.55;64.89;79.77;;
60872;Laerm;46714;50.118;14.462;2022-11-25T07:54:30;74.93;68.47;81.21;;
60872;Laerm;46714;50.118;14.462;2022-11-25T07:56:56;74.18;64.34;80.60;;
60872;Laerm;46714;50.118;14.462;2022-11-25T07:59:22;73.94;66.54;79.14;;
60872;Laerm;46714;50.118;14.462;2022-11-25T08:01:49;74.24;67.71;78.31;;
60872;Laerm;46714;50.118;14.462;2022-11-25T08:04:15;74.18;67.39;83.45;;
60872;Laerm;46714;50.118;14.462;2022-11-25T08:06:43;74.64;69.44;80.34;;
60872;Laerm;46714;50.118;14.462;2022-11-25T08:09:11;74.23;68.45;80.97;;
60872;Laerm;46714;50.118;14.462;2022-11-25T08:11:37;74.22;66.91;80.80;;
60872;Laerm;46714;50.118;14.462;2022-11-25T08:14:03;75.62;70.23;81.19;;
60872;Laerm;46714;50.118;14.462;2022-11-25T08:16:30;74.87;69.88;80.26;;
60872;Laerm;46714;50.118;14.462;2022-11-25T08:18:57;74.97;71.41;78.13;;
60872;Laerm;46714;50.118;14.462;2022-11-25T08:21:22;83.00;69.83;110.46;;
60872;Laerm;46714;50.118;14.462;2022-11-25T08:23:48;76.06;68.51;93.38;;
60872;Laerm;46714;50.118;14.462;2022-11-25T08:28:46;75.86;70.19;83.02;;
60872;Laerm;46714;50.118;14.462;2022-11-25T08:31:18;75.05;69.59;79.93;;
60872;Laerm;46714;50.118;14.462;2022-11-25T08:33:44;74.56;67.56;84.17;;
60872;Laerm;46714;50.118;14.462;2022-11-25T08:36:10;74.97;67.83;83.09;;
60872;Laerm;46714;50.118;14.462;2022-11-25T08:38:37;74.71;69.65;78.60;;
60872;Laerm;46714;50.118;14.462;2022-11-25T08:41:08;75.12;69.47;82.87;;
60872;Laerm;46714;50.118;14.462;2022-11-25T08:43:33;73.71;67.53;78.25;;
60872;Laerm;46714;50.118;14.462;2022-11-25T08:45:59;73.19;63.84;78.46;;
60872;Laerm;46714;50.118;14.462;2022-11-25T08:48:24;72.84;66.28;80.30;;
60872;Laerm;46714;50.118;14.462;2022-11-25T08:50:52;74.14;67.11;78.97;;
60872;Laerm;46714;50.118;14.462;2022-11-25T08:53:19;74.97;69.75;80.86;;
60872;Laerm;46714;50.118;14.462;2022-11-25T08:55:44;74.75;68.11;81.22;;
60872;Laerm;46714;50.118;14.462;2022-11-25T08:58:10;74.51;68.10;81.97;;
60872;Laerm;46714;50.118;14.462;2022-11-25T09:00:38;75.35;69.47;79.43;;
60872;Laerm;46714;50.118;14.462;2022-11-25T09:03:04;79.82;70.03;97.06;;
60872;Laerm;46714;50.118;14.462;2022-11-25T09:05:29;74.53;66.94;80.47;;
60872;Laerm;46714;50.118;14.462;2022-11-25T09:08:01;74.95;69.78;81.75;;
60872;Laerm;46714;50.118;14.462;2022-11-25T09:10:26;75.04;69.81;79.16;;
60872;Laerm;46714;50.118;14.462;2022-11-25T09:12:52;75.83;69.68;80.75;;
60872;Laerm;46714;50.118;14.462;2022-11-25T09:15:17;74.86;70.68;82.79;;
60872;Laerm;46714;50.118;14.462;2022-11-25T09:17:42;75.23;69.98;89.95;;
60872;Laerm;46714;50.118;14.462;2022-11-25T09:20:08;75.29;70.34;80.21;;
60872;Laerm;46714;50.118;14.462;2022-11-25T09:22:34;75.00;70.54;81.79;;
60872;Laerm;46714;50.118;14.462;2022-11-25T09:24:59;74.58;70.22;79.94;;
60872;Laerm;46714;50.118;14.462;2022-11-25T09:27:24;75.07;69.57;79.90;;
60872;Laerm;46714;50.118;14.462;2022-11-25T09:29:50;77.47;70.13;92.65;;
60872;Laerm;46714;50.118;14.462;2022-11-25T09:32:15;74.65;69.28;80.63;;
60872;Laerm;46714;50.118;14.462;2022-11-25T09:34:40;75.19;69.64;81.14;;
60872;Laerm;46714;50.118;14.462;2022-11-25T09:37:06;75.65;70.86;83.24;;
60872;Laerm;46714;50.118;14.462;2022-11-25T09:39:31;74.93;70.66;84.83;;
60872;Laerm;46714;50.118;14.462;2022-11-25T09:42:06;77.24;69.01;96.70;;
60872;Laerm;46714;50.118;14.462;2022-11-25T09:45:18;77.65;69.61;99.60;;
60872;Laerm;46714;50.118;14.462;2022-11-25T09:50:50;79.02;70.61;99.49;;
60872;Laerm;46714;50.118;14.462;2022-11-25T09:56:02;76.88;71.30;94.56;;
60872;Laerm;46714;50.118;14.462;2022-11-25T09:58:39;76.37;71.22;94.51;;
60872;Laerm;46714;50.118;14.462;2022-11-25T10:01:16;75.24;70.46;80.03;;
60872;Laerm;46714;50.118;14.462;2022-11-25T10:03:48;74.91;67.47;81.10;;
60872;Laerm;46714;50.118;14.462;2022-11-25T10:06:20;79.50;70.27;99.77;;
60872;Laerm;46714;50.118;14.462;2022-11-25T10:08:54;74.63;69.03;80.88;;
60872;Laerm;46714;50.118;14.462;2022-11-25T10:14:03;74.85;69.45;78.11;;
60872;Laerm;46714;50.118;14.462;2022-11-25T10:16:32;77.92;68.14;95.53;;
60872;Laerm;46714;50.118;14.462;2022-11-25T10:19:22;75.99;71.87;87.09;;
60872;Laerm;46714;50.118;14.462;2022-11-25T10:21:49;75.91;71.90;82.97;;
60872;Laerm;46714;50.118;14.462;2022-11-25T10:24:16;74.93;69.41;87.52;;
60872;Laerm;46714;50.118;14.462;2022-11-25T10:26:52;75.19;68.89;84.30;;
60872;Laerm;46714;50.118;14.462;2022-11-25T10:29:26;75.94;70.53;88.79;;
60872;Laerm;46714;50.118;14.462;2022-11-25T10:34:37;75.39;68.32;80.99;;
60872;Laerm;46714;50.118;14.462;2022-11-25T10:37:11;75.16;70.02;85.18;;
60872;Laerm;46714;50.118;14.462;2022-11-25T10:39:38;75.28;71.17;82.97;;
60872;Laerm;46714;50.118;14.462;2022-11-25T10:42:08;74.18;67.48;78.50;;
60872;Laerm;46714;50.118;14.462;2022-11-25T10:44:39;75.40;71.51;82.29;;
60872;Laerm;46714;50.118;14.462;2022-11-25T10:53:10;75.52;71.45;88.66;;
60872;Laerm;46714;50.118;14.462;2022-11-25T10:55:38;74.82;68.76;81.03;;
60872;Laerm;46714;50.118;14.462;2022-11-25T11:03:39;75.57;69.79;91.52;;
60872;Laerm;46714;50.118;14.462;2022-11-25T11:06:05;75.04;67.13;84.96;;
60872;Laerm;46714;50.118;14.462;2022-11-25T11:08:38;75.57;68.89;82.39;;
60872;Laerm;46714;50.118;14.462;2022-11-25T11:11:13;75.09;69.95;79.61;;
60872;Laerm;46714;50.118;14.462;2022-11-25T11:13:39;74.75;70.74;79.65;;
60872;Laerm;46714;50.118;14.462;2022-11-25T11:16:22;75.82;69.01;85.99;;
60872;Laerm;46714;50.118;14.462;2022-11-25T11:18:48;83.39;70.73;102.80;;
60872;Laerm;46714;50.118;14.462;2022-11-25T11:21:27;74.68;68.29;78.98;;
60872;Laerm;46714;50.118;14.462;2022-11-25T11:23:54;74.86;69.95;78.17;;
60872;Laerm;46714;50.118;14.462;2022-11-25T11:26:26;75.09;68.58;82.12;;
60872;Laerm;46714;50.118;14.462;2022-11-25T11:29:14;75.20;70.39;79.50;;
60872;Laerm;46714;50.118;14.462;2022-11-25T11:31:46;81.05;69.46;103.07;;
60872;Laerm;46714;50.118;14.462;2022-11-25T11:48:30;74.90;69.70;78.84;;
60872;Laerm;46714;50.118;14.462;2022-11-25T11:59:17;75.00;68.91;79.52;;
60872;Laerm;46714;50.118;14.462;2022-11-25T12:04:46;75.39;71.66;81.09;;
60872;Laerm;46714;50.118;14.462;2022-11-25T12:12:48;74.94;70.10;79.21;;
60872;Laerm;46714;50.118;14.462;2022-11-25T12:15:39;77.60;71.97;95.51;;
60872;Laerm;46714;50.118;14.462;2022-11-25T12:21:03;75.04;69.03;80.18;;
60872;Laerm;46714;50.118;14.462;2022-11-25T12:23:52;75.18;71.07;78.99;;
60872;Laerm;46714;50.118;14.462;2022-11-25T12:27:01;74.88;70.21;77.84;;
60872;Laerm;46714;50.118;14.462;2022-11-25T12:29:43;74.86;67.46;83.94;;
60872;Laerm;46714;50.118;14.462;2022-11-25T12:35:04;77.37;71.19;98.69;;
60872;Laerm;46714;50.118;14.462;2022-11-25T12:37:46;74.95;69.70;80.97;;
60872;Laerm;46714;50.118;14.462;2022-11-25T12:40:28;74.28;70.58;80.98;;
60872;Laerm;46714;50.118;14.462;2022-11-25T12:43:54;73.96;67.23;79.21;;
60872;Laerm;46714;50.118;14.462;2022-11-25T12:46:02;80.46;69.51;102.10;;
60872;Laerm;46714;50.118;14.462;2022-11-25T12:48:30;74.57;69.37;81.64;;
60872;Laerm;46714;50.118;14.462;2022-11-25T12:51:03;74.89;71.40;80.09;;
60872;Laerm;46714;50.118;14.462;2022-11-25T12:53:53;73.68;69.48;77.87;;
60872;Laerm;46714;50.118;14.462;2022-11-25T12:56:32;76.66;66.81;97.01;;
60872;Laerm;46714;50.118;14.462;2022-11-25T13:05:01;73.90;69.75;77.06;;
60872;Laerm;46714;50.118;14.462;2022-11-25T13:07:53;81.92;70.56;103.23;;
60872;Laerm;46714;50.118;14.462;2022-11-25T13:13:40;73.65;67.25;82.27;;
60872;Laerm;46714;50.118;14.462;2022-11-25T13:16:11;72.79;69.04;83.24;;
60872;Laerm;46714;50.118;14.462;2022-11-25T13:18:41;77.80;70.14;101.54;;
60872;Laerm;46714;50.118;14.462;2022-11-25T13:21:12;74.72;69.79;79.88;;
60872;Laerm;46714;50.118;14.462;2022-11-25T13:23:48;74.22;70.72;80.37;;
60872;Laerm;46714;50.118;14.462;2022-11-25T13:26:34;74.28;70.37;78.54;;
60872;Laerm;46714;50.118;14.462;2022-11-25T13:29:06;74.09;69.61;79.73;;
60872;Laerm;46714;50.118;14.462;2022-11-25T13:31:55;78.50;69.93;94.32;;
60872;Laerm;46714;50.118;14.462;2022-11-25T13:34:29;73.58;69.91;77.98;;
60872;Laerm;46714;50.118;14.462;2022-11-25T13:36:57;74.21;70.39;78.88;;
60872;Laerm;46714;50.118;14.462;2022-11-25T13:41:58;74.19;69.64;80.21;;
60872;Laerm;46714;50.118;14.462;2022-11-25T13:44:26;74.16;69.86;81.90;;
60872;Laerm;46714;50.118;14.462;2022-11-25T13:46:55;74.05;70.70;78.63;;
60872;Laerm;46714;50.118;14.462;2022-11-25T13:52:23;73.98;69.99;77.80;;
60872;Laerm;46714;50.118;14.462;2022-11-25T13:54:53;70.93;63.37;78.83;;
60872;Laerm;46714;50.118;14.462;2022-11-25T13:57:29;70.19;65.41;80.87;;
60872;Laerm;46714;50.118;14.462;2022-11-25T14:00:04;82.08;64.52;104.78;;
60872;Laerm;46714;50.118;14.462;2022-11-25T14:02:35;69.73;65.74;74.02;;
60872;Laerm;46714;50.118;14.462;2022-11-25T14:14:56;83.13;69.53;106.57;;
60872;Laerm;46714;50.118;14.462;2022-11-25T14:25:55;72.90;68.26;77.87;;
60872;Laerm;46714;50.118;14.462;2022-11-25T14:28:41;81.05;68.92;99.95;;
60872;Laerm;46714;50.118;14.462;2022-11-25T14:31:11;74.28;70.24;84.68;;
60872;Laerm;46714;50.118;14.462;2022-11-25T14:36:14;73.91;69.61;80.13;;
60872;Laerm;46714;50.118;14.462;2022-11-25T14:38:48;74.22;69.19;81.98;;
60872;Laerm;46714;50.118;14.462;2022-11-25T14:41:27;74.24;70.59;78.99;;
60872;Laerm;46714;50.118;14.462;2022-11-25T14:44:03;75.49;70.98;84.00;;
60872;Laerm;46714;50.118;14.462;2022-11-25T14:46:29;75.58;71.63;81.23;;
60872;Laerm;46714;50.118;14.462;2022-11-25T14:49:00;75.35;71.60;81.52;;
60872;Laerm;46714;50.118;14.462;2022-11-25T14:51:33;74.55;70.72;78.91;;
60872;Laerm;46714;50.118;14.462;2022-11-25T14:53:59;74.12;71.02;77.17;;
60872;Laerm;46714;50.118;14.462;2022-11-25T14:56:28;77.11;70.63;95.76;;
60872;Laerm;46714;50.118;14.462;2022-11-25T14:58:56;76.46;71.82;91.65;;
60872;Laerm;46714;50.118;14.462;2022-11-25T15:01:32;75.06;70.61;79.97;;
60872;Laerm;46714;50.118;14.462;2022-11-25T15:04:12;79.85;72.02;97.69;;
60872;Laerm;46714;50.118;14.462;2022-11-25T15:06:42;74.38;71.01;77.49;;
60872;Laerm;46714;50.118;14.462;2022-11-25T15:09:20;74.56;70.74;78.29;;
60872;Laerm;46714;50.118;14.462;2022-11-25T15:11:52;73.74;70.15;78.72;;
60872;Laerm;46714;50.118;14.462;2022-11-25T15:16:56;74.22;70.61;81.13;;
60872;Laerm;46714;50.118;14.462;2022-11-25T15:19:25;74.14;70.09;79.31;;
60872;Laerm;46714;50.118;14.462;2022-11-25T15:21:58;74.37;70.93;77.61;;
60872;Laerm;46714;50.118;14.462;2022-11-25T15:24:31;73.71;69.40;78.38;;
60872;Laerm;46714;50.118;14.462;2022-11-25T15:27:01;74.38;68.67;79.99;;
60872;Laerm;46714;50.118;14.462;2022-11-25T15:29:29;74.09;69.72;78.63;;